TimeEEST,TemperatureF,Dew PointF,Humidity,Sea Level PressureIn,VisibilityMPH,Wind Direction,Wind SpeedMPH,Gust SpeedMPH,PrecipitationIn,Events,Conditions,WindDirDegrees,DateUTC
12:20 AM,60.8,55.4,82,29.86,6.2,Calm,Calm,-,N/A,,Scattered Clouds,0,2012-10-09 21:20:00
12:50 AM,60.8,57.2,88,29.86,6.2,Calm,Calm,-,N/A,,Scattered Clouds,0,2012-10-09 21:50:00
1:20 AM,62.6,57.2,82,29.86,6.2,Calm,Calm,-,N/A,,Scattered Clouds,0,2012-10-09 22:20:00
3:00 AM,62,56,77,29.86,6,SSE,4.6,,,,Scattered Clouds,150,2012-10-10 00:00:00
4:50 AM,62.6,57.2,82,29.83,6.2,Calm,Calm,-,N/A,,Scattered Clouds,0,2012-10-10 01:50:00
5:50 AM,62.6,57.2,82,29.83,6.2,Calm,Calm,-,N/A,,Mostly Cloudy,0,2012-10-10 02:50:00
6:20 AM,62.6,57.2,82,29.83,6.2,Calm,Calm,-,N/A,,Mostly Cloudy,0,2012-10-10 03:20:00
6:50 AM,62.6,57.2,82,29.80,6.2,SE,4.6,-,N/A,,Scattered Clouds,140,2012-10-10 03:50:00
7:20 AM,62.6,55.4,77,29.80,6.2,Calm,Calm,-,N/A,,Scattered Clouds,0,2012-10-10 04:20:00
7:50 AM,62.6,55.4,77,29.80,6.2,Calm,Calm,-,N/A,,Mostly Cloudy,0,2012-10-10 04:50:00
8:20 AM,62.6,55.4,77,29.83,6.2,Calm,Calm,-,N/A,,Mostly Cloudy,0,2012-10-10 05:20:00
8:50 AM,64.4,55.4,73,29.83,6.2,SSE,4.6,-,N/A,,Scattered Clouds,150,2012-10-10 05:50:00
9:00 AM,65,56,65,29.83,6,SSE,4.6,,,,Scattered Clouds,150,2012-10-10 06:00:00
9:20 AM,68.0,57.2,68,29.83,6.2,ESE,5.8,-,N/A,,Scattered Clouds,120,2012-10-10 06:20:00
9:50 AM,69.8,57.2,64,29.83,6.2,ESE,6.9,-,N/A,,Scattered Clouds,120,2012-10-10 06:50:00
10:20 AM,73.4,55.4,53,29.83,6.2,SE,5.8,-,N/A,,Scattered Clouds,130,2012-10-10 07:20:00
10:50 AM,73.4,57.2,57,29.83,6.2,ESE,4.6,-,N/A,,Mostly Cloudy,120,2012-10-10 07:50:00
11:20 AM,73.4,57.2,57,29.83,6.2,ESE,4.6,-,N/A,,Mostly Cloudy,120,2012-10-10 08:20:00
11:50 AM,75.2,55.4,50,29.83,6.2,SSE,4.6,-,N/A,,Mostly Cloudy,150,2012-10-10 08:50:00
12:20 PM,75.2,55.4,50,29.83,6.2,SSE,4.6,-,N/A,,Mostly Cloudy,150,2012-10-10 09:20:00
12:50 PM,78.8,53.6,42,29.83,6.2,Calm,Calm,-,N/A,,Mostly Cloudy,0,2012-10-10 09:50:00
1:20 PM,78.8,53.6,42,29.83,6.2,Calm,Calm,-,N/A,,Mostly Cloudy,0,2012-10-10 10:20:00
1:50 PM,78.8,48.2,34,29.80,6.2,Calm,Calm,-,N/A,,Scattered Clouds,0,2012-10-10 10:50:00
2:50 PM,80.6,53.6,39,29.77,6.2,West,5.8,-,N/A,,Scattered Clouds,280,2012-10-10 11:50:00
3:00 PM,80,54,30,29.79,6,West,5.8,,,,Scattered Clouds,280,2012-10-10 12:00:00
3:50 PM,78.8,57.2,47,29.77,6.2,WNW,5.8,-,N/A,,Scattered Clouds,290,2012-10-10 12:50:00
4:50 PM,77.0,59.0,54,29.77,6.2,WNW,6.9,-,N/A,,Scattered Clouds,290,2012-10-10 13:50:00
5:20 PM,77.0,59.0,54,29.77,6.2,WNW,6.9,-,N/A,,Scattered Clouds,290,2012-10-10 14:20:00
5:50 PM,77.0,59.0,54,29.77,6.2,SW,4.6,-,N/A,,Partly Cloudy,230,2012-10-10 14:50:00
6:20 PM,75.2,59.0,57,29.77,6.2,SW,4.6,-,N/A,,Partly Cloudy,230,2012-10-10 15:20:00
6:50 PM,75.2,60.8,61,29.77,6.2,Calm,Calm,-,N/A,,Partly Cloudy,0,2012-10-10 15:50:00
7:20 PM,71.6,60.8,69,29.77,6.2,Calm,Calm,-,N/A,,Partly Cloudy,0,2012-10-10 16:20:00
7:50 PM,69.8,59.0,68,29.80,6.2,Calm,Calm,-,N/A,,Partly Cloudy,0,2012-10-10 16:50:00
8:20 PM,68.0,59.0,73,29.80,6.2,Calm,Calm,-,N/A,,Partly Cloudy,0,2012-10-10 17:20:00
8:50 PM,66.2,59.0,78,29.80,6.2,Calm,Calm,-,N/A,,Partly Cloudy,0,2012-10-10 17:50:00
9:00 PM,67,59,69,29.82,6,Calm,Calm,,,,Scattered Clouds,,2012-10-10 18:00:00
9:20 PM,66.2,59.0,78,29.80,6.2,Calm,Calm,-,N/A,,Partly Cloudy,0,2012-10-10 18:20:00
9:50 PM,66.2,59.0,78,29.80,6.2,Calm,Calm,-,N/A,,Partly Cloudy,0,2012-10-10 18:50:00
10:20 PM,66.2,59.0,78,29.80,6.2,Calm,Calm,-,N/A,,Partly Cloudy,0,2012-10-10 19:20:00
10:50 PM,64.4,59.0,83,29.83,6.2,Calm,Calm,-,N/A,,Partly Cloudy,0,2012-10-10 19:50:00
11:50 PM,64.4,59.0,83,29.83,6.2,Calm,Calm,-,N/A,,Partly Cloudy,0,2012-10-10 20:50:00